Briefing drone pour Blanzat

Rechercher une autre localisation

Conditions de vol :


Nous sommes le : Vendredi 23 février 2024
Il est 02:54 UTC (03:54 LT)

Lever de soleil : 06:10 UTC (07:10 LT)
Coucher de soleil : 17:51 UTC (18:51 LT)

Météo

L'essentiel des conditions de vol

VIGILANCE MÉTÉO FRANCE - Puy-de-Dôme (63)
Pas de vigilances particulieres
CARTE TEMSI
CARTES DES FRONTS
METAR de LFLC
LFLC 230230Z AUTO 18006KT 150V210 CAVOK 04/M01 Q1002 NOSIG

Date d'émission: 23/02/2024
Heure d'émission: 02:30 UTC
Vent: 180° (variable du 150° au 210°) pour 6 KT (11 km/h)
Visibilité horizontale: > 10 km
Plafond : Plafond et visibilité OK (CAVOK)
Température: 4 °C
Point de rosée: -1 °C
Humidité: 70%
Pression (QNH): 1002 hPa
Conditions: Pas de changement dans les 2 heures (NOSIG)
TAF de LFLC
LFLC 221830Z 2218/2318 CNL

Conditions prévues :

Heure d'émission : Bulletin éffectué le 22 à 18:00 UTC
Prévision : Valide du 22 a 18:00 UTC au 23 a 18:00 UTC
Nuages : à 0ft (0 m)
WEBCAM POUR BLANZAT

Réglementation

Voler en sécurité

CARTES AERONAUTIQUE 1/500.000
CARTE AZBA (Reseau basse altitude)
CARTES VAC (LFLC)
SUP AIP




Chargement des AIP...
NOTAM (BLANZAT + Terrain à proximité / FIR )




Chargement des NOTAMS...
CONTACT PREFECTURE 63
Puy-de-Dôme (63) : [email protected]


Avertissement : Les données mises à disposition sont indicatives. Oxygène Drone ne pourra être tenu responsable de dégâts causés aux biens et aux personnes.